createdAt,value
2023-05-22T00:01:15.057Z,71.72
2023-05-22T00:03:42.074Z,71.69
2023-05-22T00:06:10.434Z,71.32
2023-05-22T00:08:37.546Z,71.33
2023-05-22T00:11:05.223Z,71.36
2023-05-22T00:13:32.217Z,72.01
2023-05-22T00:15:59.226Z,72.27
2023-05-22T00:18:27.322Z,73.53
2023-05-22T00:20:54.499Z,73.97
2023-05-22T00:23:22.195Z,74.16
2023-05-22T00:25:50.814Z,74.89
2023-05-22T00:28:17.883Z,75.86
2023-05-22T00:30:45.904Z,76.59
2023-05-22T00:33:13.090Z,76.33
2023-05-22T00:35:40.036Z,75.95
2023-05-22T00:38:08.280Z,75.45
2023-05-22T00:40:35.573Z,75.62
2023-05-22T00:43:08.523Z,75.36
2023-05-22T00:45:35.970Z,74.99
2023-05-22T00:48:03.046Z,74.63
2023-05-22T00:50:30.134Z,74.29
2023-05-22T00:52:57.175Z,74.23
2023-05-22T00:55:24.434Z,73.89
2023-05-22T00:57:52.455Z,73.39
2023-05-22T01:00:20.636Z,73.43
2023-05-22T01:02:48.185Z,73.32
2023-05-22T01:05:18.346Z,73.27
2023-05-22T01:07:46.647Z,72.92
2023-05-22T01:10:13.813Z,72.94
2023-05-22T01:12:52.992Z,71.86
2023-05-22T01:15:39.691Z,72.06
2023-05-22T01:18:30.411Z,71.53
2023-05-22T01:21:18.478Z,71.41
2023-05-22T01:24:25.814Z,71.13
2023-05-22T01:27:26.264Z,71.69
2023-05-22T01:29:59.362Z,72.12
2023-05-22T01:32:29.236Z,72.04
2023-05-22T01:35:01.695Z,73.12
2023-05-22T01:37:29.740Z,73.77
2023-05-22T01:39:58.057Z,74.27
2023-05-22T01:42:25.749Z,74.68
2023-05-22T01:44:54.343Z,74.15
2023-05-22T01:47:23.459Z,75.04
2023-05-22T01:49:52.273Z,75.27
2023-05-22T01:52:29.089Z,75.00
2023-05-22T01:55:10.329Z,74.04
2023-05-22T01:57:45.957Z,73.78
2023-05-22T02:00:15.478Z,73.42
2023-05-22T02:02:49.656Z,73.62
2023-05-22T02:05:22.478Z,73.16
2023-05-22T02:07:50.500Z,73.50
2023-05-22T02:10:20.817Z,73.12
2023-05-22T02:12:48.530Z,72.86
2023-05-22T02:15:16.443Z,72.80
2023-05-22T02:17:45.747Z,73.14
2023-05-22T02:20:15.844Z,73.38
2023-05-22T02:22:45.358Z,73.77
2023-05-22T02:25:17.452Z,73.83
2023-05-22T02:27:47.644Z,73.37
2023-05-22T02:30:15.776Z,73.90
2023-05-22T02:32:45.262Z,73.94
2023-05-22T02:35:12.681Z,74.16
2023-05-22T02:37:39.923Z,74.81
2023-05-22T02:40:07.976Z,74.61
2023-05-22T02:42:35.348Z,74.73
2023-05-22T02:45:03.149Z,74.80
2023-05-22T02:47:30.495Z,75.08
2023-05-22T02:50:00.237Z,74.71
2023-05-22T02:52:28.560Z,74.65
2023-05-22T02:54:55.824Z,74.79
2023-05-22T02:57:23.838Z,75.04
2023-05-22T02:59:51.335Z,75.65
2023-05-22T03:02:18.708Z,75.65
2023-05-22T03:04:46.566Z,74.88
2023-05-22T03:07:13.599Z,74.57
2023-05-22T03:09:40.640Z,75.32
2023-05-22T03:12:08.216Z,75.37
2023-05-22T03:14:35.546Z,74.57
2023-05-22T03:17:02.759Z,75.23
2023-05-22T03:19:30.074Z,74.81
2023-05-22T03:21:57.721Z,75.45
2023-05-22T03:24:24.811Z,75.46
2023-05-22T03:26:52.119Z,75.91
2023-05-22T03:29:26.872Z,75.33
2023-05-22T03:31:54.818Z,75.98
2023-05-22T03:34:22.920Z,75.54
2023-05-22T03:36:50.138Z,75.83
2023-05-22T03:39:17.702Z,75.33
2023-05-22T03:41:53.954Z,74.87
2023-05-22T03:44:21.089Z,74.49
2023-05-22T03:46:48.198Z,73.58
2023-05-22T03:49:15.703Z,72.75
2023-05-22T03:51:42.683Z,72.34
2023-05-22T03:54:09.685Z,72.10
2023-05-22T03:56:36.731Z,71.83
2023-05-22T03:59:03.810Z,72.04
2023-05-22T04:01:31.206Z,72.13
2023-05-22T04:03:58.210Z,71.74
2023-05-22T04:06:25.787Z,71.65
2023-05-22T04:08:52.869Z,71.33
2023-05-22T04:11:21.163Z,71.42
2023-05-22T04:13:51.109Z,71.79
2023-05-22T04:16:18.397Z,72.58
2023-05-22T04:18:45.602Z,72.79
2023-05-22T04:21:12.905Z,72.21
2023-05-22T04:23:43.406Z,72.29
2023-05-22T04:26:10.517Z,71.32
2023-05-22T04:28:38.119Z,70.99
2023-05-22T04:31:06.836Z,70.54
2023-05-22T04:33:34.901Z,70.05
2023-05-22T04:36:02.975Z,71.59
2023-05-22T04:38:30.145Z,72.30
2023-05-22T04:40:58.443Z,72.11
2023-05-22T04:43:26.876Z,72.18
2023-05-22T04:45:55.107Z,72.14
2023-05-22T04:48:24.900Z,72.52
2023-05-22T04:50:52.332Z,72.04
2023-05-22T04:53:19.418Z,71.79
2023-05-22T04:55:46.465Z,71.12
2023-05-22T04:58:13.550Z,68.80
2023-05-22T05:00:40.840Z,67.25
2023-05-22T05:03:08.585Z,66.27
2023-05-22T05:05:35.783Z,65.78
2023-05-22T05:08:02.971Z,65.87
2023-05-22T05:10:30.079Z,67.15
2023-05-22T05:12:57.232Z,67.92
2023-05-22T05:15:24.362Z,66.81
2023-05-22T05:17:51.615Z,65.69
2023-05-22T05:20:18.800Z,65.38
2023-05-22T05:22:46.549Z,63.84
2023-05-22T05:25:15.233Z,62.34
2023-05-22T05:27:42.637Z,62.11
2023-05-22T05:30:10.949Z,61.74
2023-05-22T05:32:58.383Z,62.36
2023-05-22T05:35:44.068Z,62.59
2023-05-22T05:38:13.284Z,62.41
2023-05-22T05:40:43.948Z,61.33
2023-05-22T05:43:15.374Z,61.94
2023-05-22T05:45:44.032Z,60.52
2023-05-22T05:48:12.308Z,59.97
2023-05-22T05:50:43.348Z,59.62
2023-05-22T05:53:10.610Z,58.69
2023-05-22T05:55:38.940Z,59.16
2023-05-22T05:58:06.026Z,58.01
2023-05-22T06:00:45.138Z,57.50
2023-05-22T06:03:12.433Z,56.59
2023-05-22T06:06:03.671Z,55.39
2023-05-22T06:08:49.215Z,55.24
2023-05-22T06:11:16.591Z,55.52
2023-05-22T06:13:53.487Z,55.34
2023-05-22T06:16:20.593Z,54.90
2023-05-22T06:18:48.640Z,54.30
2023-05-22T06:21:16.191Z,54.28
2023-05-22T06:23:43.304Z,54.60
2023-05-22T06:26:11.372Z,54.20
2023-05-22T06:28:40.823Z,55.09
2023-05-22T06:31:10.026Z,53.28
2023-05-22T06:33:40.970Z,52.67
2023-05-22T06:36:09.083Z,52.21
2023-05-22T06:38:38.130Z,51.42
2023-05-22T06:41:08.206Z,50.96
2023-05-22T06:43:35.914Z,51.27
2023-05-22T06:46:12.932Z,52.58
2023-05-22T06:49:00.259Z,50.61
2023-05-22T06:51:35.519Z,51.82
2023-05-22T06:54:09.621Z,51.00
2023-05-22T06:56:37.614Z,49.85
2023-05-22T06:59:11.966Z,49.49
2023-05-22T07:01:48.301Z,48.72
2023-05-22T07:04:20.438Z,47.62
2023-05-22T07:06:57.278Z,47.74
2023-05-22T07:09:24.551Z,46.27
2023-05-22T07:11:51.762Z,45.71
2023-05-22T07:14:18.849Z,46.08
2023-05-22T07:16:46.473Z,45.37
2023-05-22T07:19:19.613Z,46.37
2023-05-22T07:21:46.889Z,44.96
2023-05-22T07:24:17.796Z,45.08
2023-05-22T07:26:46.673Z,44.65
2023-05-22T07:29:14.622Z,44.09
2023-05-22T07:31:42.654Z,44.37
2023-05-22T07:34:11.146Z,43.52
2023-05-22T07:36:38.782Z,43.07
2023-05-22T07:39:06.985Z,42.36
2023-05-22T07:41:39.093Z,41.57
2023-05-22T07:44:08.001Z,41.02
2023-05-22T07:46:38.473Z,40.24
2023-05-22T07:49:19.838Z,40.21
2023-05-22T07:51:48.113Z,38.50
2023-05-22T07:54:16.694Z,39.76
2023-05-22T07:56:46.164Z,39.30
2023-05-22T07:59:16.528Z,38.23
2023-05-22T08:01:43.661Z,37.78
2023-05-22T08:04:11.114Z,37.94
2023-05-22T08:06:39.745Z,38.61
2023-05-22T08:09:06.823Z,39.73
2023-05-22T08:11:34.345Z,40.07
2023-05-22T08:14:01.424Z,38.49
2023-05-22T08:16:28.576Z,39.07
2023-05-22T08:18:55.684Z,38.02
2023-05-22T08:21:22.820Z,37.97
2023-05-22T08:23:49.837Z,38.37
2023-05-22T08:26:16.919Z,37.98
2023-05-22T08:28:44.586Z,37.75
2023-05-22T08:31:12.444Z,38.15
2023-05-22T08:33:40.099Z,37.75
2023-05-22T08:36:07.424Z,37.29
2023-05-22T08:38:34.848Z,37.14
2023-05-22T08:41:02.416Z,36.92
2023-05-22T08:43:29.794Z,37.08
2023-05-22T08:46:03.543Z,35.61
2023-05-22T08:48:34.711Z,36.58
2023-05-22T08:51:04.850Z,36.10
2023-05-22T08:53:35.856Z,36.79
2023-05-22T08:56:06.934Z,36.88
2023-05-22T08:58:37.924Z,35.72
2023-05-22T09:01:06.596Z,34.85
2023-05-22T09:03:37.058Z,35.28
2023-05-22T09:06:04.751Z,37.28
2023-05-22T09:08:32.013Z,36.01
2023-05-22T09:10:59.070Z,34.25
2023-05-22T09:13:28.351Z,33.89
2023-05-22T09:16:11.927Z,33.78
2023-05-22T09:18:40.131Z,33.18
2023-05-22T09:21:21.421Z,34.82
2023-05-22T09:23:55.263Z,34.29
2023-05-22T09:26:22.640Z,34.37
2023-05-22T09:28:49.675Z,34.13
2023-05-22T09:31:17.049Z,34.57
2023-05-22T09:33:44.487Z,31.76
2023-05-22T09:36:11.909Z,32.49
2023-05-22T09:38:39.631Z,32.41
2023-05-22T09:41:06.757Z,32.13
2023-05-22T09:43:33.988Z,32.13
2023-05-22T09:46:02.477Z,32.50
2023-05-22T09:48:29.816Z,32.01
2023-05-22T09:51:00.178Z,31.70
2023-05-22T09:53:29.078Z,31.69
2023-05-22T09:56:00.430Z,31.95
2023-05-22T09:58:31.325Z,31.68
2023-05-22T10:00:59.493Z,31.84
2023-05-22T10:03:27.831Z,31.56
2023-05-22T10:05:57.022Z,31.98
2023-05-22T10:08:36.790Z,31.39
2023-05-22T10:11:06.417Z,31.76
2023-05-22T10:13:36.383Z,31.83
2023-05-22T10:16:05.090Z,31.92
2023-05-22T10:18:32.407Z,31.48
2023-05-22T10:21:00.326Z,30.54
2023-05-22T10:23:28.742Z,30.88
2023-05-22T10:25:56.482Z,30.77
2023-05-22T10:28:40.816Z,30.53
2023-05-22T10:31:19.144Z,30.30
2023-05-22T10:34:11.506Z,31.33
2023-05-22T10:37:00.404Z,31.07
2023-05-22T10:40:02.104Z,30.37
2023-05-22T10:42:32.481Z,31.34
2023-05-22T10:45:01.308Z,30.65
2023-05-22T10:47:28.435Z,30.77
2023-05-22T10:50:07.441Z,29.47
2023-05-22T10:52:35.689Z,30.52
2023-05-22T10:55:08.230Z,31.38
2023-05-22T10:57:38.502Z,31.05
2023-05-22T11:00:11.091Z,30.95
2023-05-22T11:02:43.518Z,29.85
2023-05-22T11:05:18.642Z,30.02
2023-05-22T11:07:45.777Z,30.53
2023-05-22T11:10:12.743Z,30.43
2023-05-22T11:12:41.667Z,30.20
2023-05-22T11:15:10.733Z,29.91
2023-05-22T11:17:42.728Z,30.49
2023-05-22T11:20:21.244Z,30.81
2023-05-22T11:22:50.743Z,30.63
2023-05-22T11:25:19.258Z,30.57
2023-05-22T11:27:48.534Z,30.06
2023-05-22T11:30:17.505Z,30.53
2023-05-22T11:32:46.047Z,29.95
2023-05-22T11:35:18.530Z,30.12
2023-05-22T11:37:46.498Z,29.68
2023-05-22T11:40:19.006Z,29.61
2023-05-22T11:42:46.683Z,29.62
2023-05-22T11:45:14.385Z,29.93
2023-05-22T11:47:42.267Z,29.43
2023-05-22T11:50:10.367Z,29.56
2023-05-22T11:52:41.499Z,31.17
2023-05-22T11:55:10.082Z,30.02
2023-05-22T11:57:38.442Z,30.86
2023-05-22T12:00:08.736Z,30.51
2023-05-22T12:02:39.517Z,30.82
2023-05-22T12:05:10.330Z,30.15
2023-05-22T12:07:37.908Z,30.19
2023-05-22T12:10:07.540Z,29.77
2023-05-22T12:12:34.716Z,30.19
2023-05-22T12:15:04.914Z,30.06
2023-05-22T12:17:31.774Z,30.75
2023-05-22T12:19:59.296Z,31.10
2023-05-22T12:22:29.896Z,29.76
2023-05-22T12:24:57.005Z,29.72
2023-05-22T12:27:24.217Z,30.25
2023-05-22T12:29:53.025Z,30.85
2023-05-22T12:32:22.260Z,30.38
2023-05-22T12:34:50.529Z,30.81
2023-05-22T12:37:28.389Z,31.14
2023-05-22T12:39:56.540Z,31.10
2023-05-22T12:42:25.053Z,31.21
2023-05-22T12:44:58.283Z,30.65
2023-05-22T12:47:25.963Z,31.52
2023-05-22T12:49:53.558Z,31.30
2023-05-22T12:52:20.621Z,31.52
2023-05-22T12:54:47.778Z,31.74
2023-05-22T12:57:17.020Z,31.26
2023-05-22T12:59:44.159Z,30.70
2023-05-22T13:02:11.597Z,30.84
2023-05-22T13:04:38.820Z,30.74
2023-05-22T13:07:06.095Z,31.49
2023-05-22T13:09:33.158Z,30.46
2023-05-22T13:12:00.489Z,30.91
2023-05-22T13:14:27.617Z,30.92
2023-05-22T13:16:54.680Z,31.10
2023-05-22T13:19:21.779Z,31.11
2023-05-22T13:21:48.898Z,30.58
2023-05-22T13:24:15.913Z,31.22
2023-05-22T13:26:42.943Z,31.21
2023-05-22T13:29:10.124Z,31.27
2023-05-22T13:31:38.114Z,31.67
2023-05-22T13:34:05.669Z,30.69
2023-05-22T13:36:34.565Z,31.11
2023-05-22T13:39:01.889Z,31.67
2023-05-22T13:41:29.134Z,31.46
2023-05-22T13:43:56.345Z,30.85
2023-05-22T13:46:23.508Z,31.51
2023-05-22T13:48:50.700Z,30.82
2023-05-22T13:51:17.900Z,31.50
2023-05-22T13:53:45.104Z,31.68
2023-05-22T13:56:12.306Z,32.08
2023-05-22T13:58:39.573Z,31.84
2023-05-22T14:01:06.719Z,31.78
2023-05-22T14:03:34.153Z,32.02
2023-05-22T14:06:01.861Z,32.03
2023-05-22T14:08:28.919Z,31.89
2023-05-22T14:10:56.052Z,32.18
2023-05-22T14:13:23.268Z,32.49
2023-05-22T14:15:50.460Z,32.31
2023-05-22T14:18:17.704Z,32.80
2023-05-22T14:20:46.001Z,32.76
2023-05-22T14:23:14.116Z,32.47
2023-05-22T14:25:43.288Z,33.06
2023-05-22T14:28:14.226Z,32.42
2023-05-22T14:30:41.531Z,32.25
2023-05-22T14:33:08.661Z,33.02
2023-05-22T14:35:35.799Z,32.77
2023-05-22T14:38:02.841Z,33.36
2023-05-22T14:40:29.929Z,32.62
2023-05-22T14:42:57.025Z,32.77
2023-05-22T14:45:24.183Z,32.48
2023-05-22T14:47:51.410Z,32.92
2023-05-22T14:50:20.208Z,32.62
2023-05-22T14:52:49.399Z,33.01
2023-05-22T14:55:17.588Z,33.02
2023-05-22T14:57:44.827Z,32.95
2023-05-22T15:00:12.771Z,32.78
2023-05-22T15:02:42.935Z,32.91
2023-05-22T15:05:10.508Z,33.23
2023-05-22T15:10:09.089Z,33.74
2023-05-22T15:12:36.394Z,33.56
2023-05-22T15:15:03.578Z,33.42
2023-05-22T15:17:30.625Z,33.75
2023-05-22T15:19:57.736Z,33.27
2023-05-22T15:22:24.851Z,33.30
2023-05-22T15:25:15.474Z,33.80
2023-05-22T15:27:43.953Z,33.61
2023-05-22T15:30:12.462Z,33.69
2023-05-22T15:32:39.947Z,34.04
2023-05-22T15:35:07.659Z,33.67
2023-05-22T15:37:36.694Z,33.99
2023-05-22T15:40:04.684Z,33.89
2023-05-22T15:42:32.049Z,33.67
2023-05-22T15:45:00.177Z,33.74
2023-05-22T15:47:27.611Z,34.18
2023-05-22T15:49:54.749Z,34.03
2023-05-22T15:52:24.595Z,33.75
2023-05-22T15:54:51.799Z,34.18
2023-05-22T15:57:18.886Z,34.62
2023-05-22T15:59:47.526Z,34.36
2023-05-22T16:02:14.939Z,34.84
2023-05-22T16:04:42.175Z,34.46
2023-05-22T16:07:09.308Z,34.18
2023-05-22T16:09:36.657Z,34.49
2023-05-22T16:12:04.284Z,34.57
2023-05-22T16:14:31.861Z,34.94
2023-05-22T16:16:59.273Z,34.80
2023-05-22T16:19:28.730Z,34.64
2023-05-22T16:21:56.065Z,34.71
2023-05-22T16:24:23.121Z,34.85
2023-05-22T16:26:50.478Z,34.54
2023-05-22T16:29:21.303Z,34.18
2023-05-22T16:31:48.611Z,34.59
2023-05-22T16:34:15.939Z,35.36
2023-05-22T16:36:43.120Z,34.97
2023-05-22T16:39:10.647Z,35.31
2023-05-22T16:41:38.072Z,35.06
2023-05-22T16:44:05.234Z,35.14
2023-05-22T16:46:32.391Z,35.82
2023-05-22T16:48:59.500Z,35.45
2023-05-22T16:51:26.630Z,35.44
2023-05-22T16:53:53.652Z,35.56
2023-05-22T16:56:21.258Z,35.59
2023-05-22T16:58:48.542Z,35.70
2023-05-22T17:01:15.990Z,35.36
2023-05-22T17:03:43.266Z,35.73
2023-05-22T17:06:10.449Z,35.80
2023-05-22T17:08:37.834Z,35.96
2023-05-22T17:11:04.985Z,36.35
2023-05-22T17:13:32.187Z,36.27
2023-05-22T17:15:59.347Z,36.42
2023-05-22T17:18:26.500Z,36.98
2023-05-22T17:20:56.648Z,37.11
2023-05-22T17:23:23.975Z,37.31
2023-05-22T17:25:51.446Z,37.98
2023-05-22T17:28:18.655Z,37.84
2023-05-22T17:30:46.349Z,38.15
2023-05-22T17:33:14.248Z,38.23
2023-05-22T17:35:41.971Z,38.25
2023-05-22T17:38:09.380Z,38.51
2023-05-22T17:40:44.670Z,38.63
2023-05-22T17:43:13.896Z,39.15
2023-05-22T17:45:42.011Z,39.43
2023-05-22T17:48:10.146Z,39.44
2023-05-22T17:50:38.105Z,39.80
2023-05-22T17:53:05.299Z,40.06
2023-05-22T17:55:32.301Z,40.14
2023-05-22T17:57:59.917Z,40.17
2023-05-22T18:00:27.004Z,40.53
2023-05-22T18:02:54.160Z,40.65
2023-05-22T18:05:21.338Z,40.77
2023-05-22T18:07:48.549Z,40.91
2023-05-22T18:10:15.719Z,41.21
2023-05-22T18:12:42.813Z,41.37
2023-05-22T18:15:12.364Z,41.52
2023-05-22T18:17:40.212Z,41.70
2023-05-22T18:20:08.704Z,42.38
2023-05-22T18:22:39.228Z,43.08
2023-05-22T18:25:07.415Z,42.88
2023-05-22T18:27:36.226Z,43.04
2023-05-22T18:30:04.721Z,43.47
2023-05-22T18:32:32.389Z,43.62
2023-05-22T18:35:00.263Z,43.58
2023-05-22T18:37:27.388Z,43.97
2023-05-22T18:39:54.541Z,44.14
2023-05-22T18:42:21.669Z,44.65
2023-05-22T18:44:49.729Z,45.51
2023-05-22T18:47:17.184Z,45.57
2023-05-22T18:49:44.420Z,45.85
2023-05-22T18:52:11.505Z,46.07
2023-05-22T18:54:38.588Z,46.36
2023-05-22T18:57:05.903Z,46.71
2023-05-22T18:59:33.058Z,46.04
2023-05-22T19:02:00.298Z,46.48
2023-05-22T19:04:27.564Z,46.29
2023-05-22T19:06:54.651Z,46.20
2023-05-22T19:09:22.364Z,46.76
2023-05-22T19:11:49.458Z,46.82
2023-05-22T19:14:16.643Z,46.53
2023-05-22T19:16:44.154Z,47.19
2023-05-22T19:19:11.824Z,47.27
2023-05-22T19:21:39.262Z,47.73
2023-05-22T19:24:07.015Z,47.81
2023-05-22T19:26:34.091Z,48.64
2023-05-22T19:29:01.252Z,48.20
2023-05-22T19:31:28.972Z,48.47
2023-05-22T19:33:56.301Z,47.98
2023-05-22T19:36:23.424Z,47.97
2023-05-22T19:38:51.876Z,48.31
2023-05-22T19:41:20.717Z,48.32
2023-05-22T19:43:47.757Z,48.39
2023-05-22T19:46:14.921Z,48.53
2023-05-22T19:48:41.952Z,48.43
2023-05-22T19:51:09.064Z,48.28
2023-05-22T19:53:36.723Z,48.64
2023-05-22T19:56:04.130Z,49.03
2023-05-22T19:58:31.204Z,48.71
2023-05-22T20:00:58.268Z,49.20
2023-05-22T20:03:26.504Z,48.92
2023-05-22T20:05:53.916Z,49.40
2023-05-22T20:08:25.699Z,49.75
2023-05-22T20:10:53.137Z,49.46
2023-05-22T20:13:20.252Z,49.66
2023-05-22T20:15:47.969Z,49.79
2023-05-22T20:18:15.269Z,50.19
2023-05-22T20:20:42.405Z,50.66
2023-05-22T20:23:09.551Z,50.93
2023-05-22T20:25:37.955Z,51.27
2023-05-22T20:28:05.221Z,50.74
2023-05-22T20:30:32.824Z,50.90
2023-05-22T20:32:59.950Z,50.96
2023-05-22T20:35:27.088Z,50.47
2023-05-22T20:37:54.257Z,50.21
2023-05-22T20:40:21.944Z,50.92
2023-05-22T20:42:49.364Z,51.71
2023-05-22T20:45:17.641Z,51.80
2023-05-22T20:47:44.987Z,51.69
2023-05-22T20:50:12.422Z,50.92
2023-05-22T20:52:39.633Z,51.75
2023-05-22T20:55:07.538Z,52.16
2023-05-22T20:57:34.804Z,52.42
2023-05-22T21:00:01.956Z,51.86
2023-05-22T21:02:28.878Z,52.62
2023-05-22T21:04:56.255Z,52.40
2023-05-22T21:07:23.436Z,53.05
2023-05-22T21:09:50.467Z,53.43
2023-05-22T21:12:17.556Z,53.48
2023-05-22T21:14:44.691Z,53.25
2023-05-22T21:17:11.832Z,53.32
2023-05-22T21:19:38.996Z,53.36
2023-05-22T21:22:06.085Z,53.35
2023-05-22T21:24:33.287Z,53.79
2023-05-22T21:27:00.802Z,53.95
2023-05-22T21:29:27.992Z,54.64
2023-05-22T21:31:54.976Z,54.72
2023-05-22T21:34:21.983Z,54.68
2023-05-22T21:36:49.940Z,55.12
2023-05-22T21:39:17.204Z,55.06
2023-05-22T21:41:44.379Z,54.91
2023-05-22T21:44:11.522Z,55.60
2023-05-22T21:46:38.780Z,55.87
2023-05-22T21:49:06.412Z,56.03
2023-05-22T21:51:33.586Z,56.22
2023-05-22T21:54:00.554Z,55.93
2023-05-22T21:56:27.806Z,55.40
2023-05-22T21:58:55.033Z,55.71
2023-05-22T22:01:22.285Z,55.88
2023-05-22T22:03:49.486Z,56.72
2023-05-22T22:06:16.755Z,56.59
2023-05-22T22:08:43.756Z,56.61
2023-05-22T22:11:10.838Z,56.89
2023-05-22T22:13:37.881Z,56.89
2023-05-22T22:16:05.096Z,57.40
2023-05-22T22:18:37.122Z,57.48
2023-05-22T22:21:04.753Z,57.63
2023-05-22T22:23:31.734Z,57.63
2023-05-22T22:25:58.818Z,57.55
2023-05-22T22:28:25.801Z,56.83
2023-05-22T22:30:55.269Z,57.20
2023-05-22T22:33:22.984Z,57.25
2023-05-22T22:35:50.318Z,57.44
2023-05-22T22:38:17.435Z,56.63
2023-05-22T22:40:44.541Z,55.89
2023-05-22T22:43:11.612Z,56.02
2023-05-22T22:45:40.213Z,56.02
2023-05-22T22:48:07.502Z,56.15
2023-05-22T22:50:34.712Z,56.22
2023-05-22T22:53:01.813Z,55.92
2023-05-22T22:55:29.011Z,55.62
2023-05-22T22:57:56.368Z,55.70
2023-05-22T23:00:23.803Z,55.73
2023-05-22T23:02:51.054Z,56.49
2023-05-22T23:05:20.520Z,56.58
2023-05-22T23:07:48.314Z,56.91
2023-05-22T23:10:15.883Z,56.50
2023-05-22T23:12:43.142Z,56.19
2023-05-22T23:15:11.439Z,56.37
2023-05-22T23:17:38.683Z,56.14
2023-05-22T23:20:06.465Z,55.75
2023-05-22T23:22:33.505Z,55.21
2023-05-22T23:25:00.630Z,55.71
2023-05-22T23:27:27.652Z,55.45
2023-05-22T23:29:54.622Z,54.76
2023-05-22T23:32:22.459Z,55.02
2023-05-22T23:34:49.663Z,54.76
2023-05-22T23:37:16.749Z,54.27
2023-05-22T23:39:43.697Z,54.06
2023-05-22T23:42:11.221Z,54.77
2023-05-22T23:44:38.387Z,55.36
2023-05-22T23:47:06.726Z,54.78
2023-05-22T23:49:34.071Z,54.64
2023-05-22T23:52:01.075Z,54.77
2023-05-22T23:54:28.055Z,54.66
2023-05-22T23:56:55.046Z,54.60
2023-05-22T23:59:22.325Z,54.65
